createdAt,value
2023-02-01T00:01:25.205Z,12.90
2023-02-01T00:03:53.365Z,14.47
2023-02-01T00:06:21.567Z,12.33
2023-02-01T00:08:49.671Z,11.37
2023-02-01T00:11:17.755Z,12.63
2023-02-01T00:13:45.920Z,11.03
2023-02-01T00:16:17.930Z,14.77
2023-02-01T00:18:46.768Z,17.60
2023-02-01T00:21:15.424Z,13.80
2023-02-01T00:23:43.776Z,9.93
2023-02-01T00:26:16.727Z,9.60
2023-02-01T00:28:44.884Z,9.30
2023-02-01T00:31:13.097Z,12.67
2023-02-01T00:33:42.840Z,14.07
2023-02-01T00:36:11.957Z,14.20
2023-02-01T00:38:40.718Z,11.20
2023-02-01T00:41:12.026Z,11.80
2023-02-01T00:43:41.219Z,10.77
2023-02-01T00:46:09.415Z,15.07
2023-02-01T00:48:37.793Z,11.40
2023-02-01T00:51:09.688Z,13.53
2023-02-01T00:53:37.751Z,10.10
2023-02-01T00:56:07.233Z,12.27
2023-02-01T00:58:35.739Z,13.67
2023-02-01T01:01:05.987Z,9.97
2023-02-01T01:03:35.407Z,14.13
2023-02-01T01:06:06.232Z,12.87
2023-02-01T01:08:36.234Z,11.33
2023-02-01T01:11:07.152Z,7.77
2023-02-01T01:13:35.355Z,8.17
2023-02-01T01:16:04.744Z,7.00
2023-02-01T01:18:34.086Z,11.40
2023-02-01T01:21:02.853Z,9.80
2023-02-01T01:23:31.078Z,8.97
2023-02-01T01:26:00.612Z,12.40
2023-02-01T01:28:28.765Z,9.33
2023-02-01T01:30:56.946Z,8.73
2023-02-01T01:33:25.010Z,9.37
2023-02-01T01:35:53.113Z,13.20
2023-02-01T01:38:21.272Z,7.67
2023-02-01T01:40:50.801Z,10.67
2023-02-01T01:43:23.475Z,8.93
2023-02-01T01:45:53.094Z,10.67
2023-02-01T01:48:26.038Z,10.60
2023-02-01T01:50:59.599Z,8.23
2023-02-01T01:53:32.824Z,10.93
2023-02-01T01:56:02.583Z,9.90
2023-02-01T01:58:35.618Z,10.97
2023-02-01T02:01:03.803Z,11.07
2023-02-01T02:03:37.013Z,11.87
2023-02-01T02:06:14.728Z,12.50
2023-02-01T02:08:42.906Z,9.60
2023-02-01T02:11:14.137Z,10.20
2023-02-01T02:13:45.435Z,10.57
2023-02-01T02:16:33.060Z,7.43
2023-02-01T02:19:30.464Z,8.80
2023-02-01T02:22:16.824Z,7.53
2023-02-01T02:25:20.175Z,11.60
2023-02-01T02:27:59.582Z,14.13
2023-02-01T02:30:45.132Z,10.77
2023-02-01T02:33:44.107Z,10.30
2023-02-01T02:36:19.059Z,12.43
2023-02-01T02:38:55.609Z,9.83
2023-02-01T02:41:50.620Z,12.90
2023-02-01T02:44:46.090Z,10.00
2023-02-01T02:47:26.998Z,10.93
2023-02-01T02:50:18.387Z,10.13
2023-02-01T02:53:10.741Z,13.23
2023-02-01T02:55:41.569Z,12.13
2023-02-01T02:58:30.826Z,12.37
2023-02-01T03:01:21.498Z,13.20
2023-02-01T03:04:11.212Z,11.77
2023-02-01T03:06:43.447Z,12.70
2023-02-01T03:09:18.658Z,9.87
2023-02-01T03:12:06.987Z,11.80
2023-02-01T03:14:38.304Z,13.77
2023-02-01T03:17:13.301Z,9.97
2023-02-01T03:19:49.511Z,9.40
2023-02-01T03:22:23.275Z,9.17
2023-02-01T03:24:56.369Z,14.97
2023-02-01T03:27:29.664Z,11.40
2023-02-01T03:30:03.883Z,12.40
2023-02-01T03:32:52.230Z,9.50
2023-02-01T03:35:25.852Z,12.13
2023-02-01T03:37:59.237Z,11.53
2023-02-01T03:40:30.149Z,11.00
2023-02-01T03:43:01.877Z,15.00
2023-02-01T03:45:36.068Z,11.50
2023-02-01T03:48:06.664Z,12.70
2023-02-01T03:50:38.739Z,12.53
2023-02-01T03:53:14.483Z,12.23
2023-02-01T03:55:44.043Z,9.70
2023-02-01T03:58:15.840Z,11.80
2023-02-01T04:00:47.009Z,11.10
2023-02-01T04:03:15.460Z,12.93
2023-02-01T04:05:43.548Z,11.67
2023-02-01T04:08:13.532Z,16.40
2023-02-01T04:10:41.624Z,13.73
2023-02-01T04:13:10.108Z,13.73
2023-02-01T04:15:38.220Z,15.47
2023-02-01T04:18:06.834Z,12.57
2023-02-01T04:20:34.886Z,16.50
2023-02-01T04:23:04.152Z,9.50
2023-02-01T04:25:33.625Z,13.10
2023-02-01T04:28:01.692Z,12.90
2023-02-01T04:30:30.377Z,14.03
2023-02-01T04:32:58.478Z,12.47
2023-02-01T04:35:26.550Z,10.93
2023-02-01T04:37:54.641Z,20.07
2023-02-01T04:40:22.949Z,14.97
2023-02-01T04:42:52.556Z,15.60
2023-02-01T04:45:20.671Z,14.37
2023-02-01T04:47:49.825Z,11.53
2023-02-01T04:50:18.664Z,13.27
2023-02-01T04:52:47.391Z,11.37
2023-02-01T04:55:15.601Z,12.40
2023-02-01T04:57:43.669Z,13.43
2023-02-01T05:00:14.421Z,13.37
2023-02-01T05:02:42.553Z,14.57
2023-02-01T05:05:11.268Z,13.27
2023-02-01T05:07:39.355Z,12.07
2023-02-01T05:10:08.320Z,14.70
2023-02-01T05:12:53.854Z,12.30
2023-02-01T05:15:23.297Z,11.27
2023-02-01T05:17:51.395Z,12.47
2023-02-01T05:20:19.628Z,18.03
2023-02-01T05:22:47.676Z,17.73
2023-02-01T05:25:16.211Z,12.90
2023-02-01T05:27:44.865Z,10.53
2023-02-01T05:30:13.812Z,15.60
2023-02-01T05:32:43.223Z,15.53
2023-02-01T05:35:11.437Z,11.90
2023-02-01T05:37:39.574Z,14.83
2023-02-01T05:40:09.210Z,9.87
2023-02-01T05:42:37.403Z,12.43
2023-02-01T05:45:08.705Z,12.43
2023-02-01T05:47:36.769Z,12.70
2023-02-01T05:50:07.692Z,11.63
2023-02-01T05:52:35.955Z,9.53
2023-02-01T05:55:04.096Z,12.87
2023-02-01T05:57:32.219Z,13.17
2023-02-01T06:00:00.800Z,11.80
2023-02-01T06:02:29.156Z,13.93
2023-02-01T06:04:57.309Z,12.83
2023-02-01T06:07:28.713Z,15.80
2023-02-01T06:09:57.726Z,13.80
2023-02-01T06:12:25.854Z,15.07
2023-02-01T06:14:54.008Z,12.27
2023-02-01T06:17:22.214Z,15.63
2023-02-01T06:19:50.586Z,16.77
2023-02-01T06:22:19.323Z,16.63
2023-02-01T06:24:48.857Z,15.57
2023-02-01T06:27:17.332Z,14.17
2023-02-01T06:29:45.454Z,21.17
2023-02-01T06:32:13.559Z,18.30
2023-02-01T06:34:41.739Z,22.53
2023-02-01T06:37:09.819Z,16.93
2023-02-01T06:39:37.901Z,18.13
2023-02-01T06:42:07.464Z,18.43
2023-02-01T06:44:35.577Z,14.47
2023-02-01T06:47:07.305Z,15.47
2023-02-01T06:49:37.023Z,14.57
2023-02-01T06:52:05.319Z,13.53
2023-02-01T06:54:35.183Z,13.73
2023-02-01T06:57:03.278Z,13.67
2023-02-01T06:59:32.735Z,12.83
2023-02-01T07:02:00.992Z,14.63
2023-02-01T07:04:29.194Z,12.50
2023-02-01T07:06:57.302Z,12.87
2023-02-01T07:09:25.587Z,11.33
2023-02-01T07:11:53.679Z,12.10
2023-02-01T07:14:21.793Z,11.53
2023-02-01T07:16:51.918Z,11.67
2023-02-01T07:19:20.025Z,14.30
2023-02-01T07:21:48.245Z,13.40
2023-02-01T07:24:16.790Z,10.00
2023-02-01T07:26:44.982Z,11.87
2023-02-01T07:29:13.201Z,11.70
2023-02-01T07:31:41.392Z,12.67
2023-02-01T07:34:10.837Z,11.23
2023-02-01T07:36:39.625Z,15.03
2023-02-01T07:39:07.707Z,9.60
2023-02-01T07:41:35.957Z,13.33
2023-02-01T07:44:05.570Z,7.43
2023-02-01T07:46:33.724Z,11.10
2023-02-01T07:49:01.946Z,11.10
2023-02-01T07:51:31.439Z,13.33
2023-02-01T07:53:59.937Z,8.77
2023-02-01T07:56:28.037Z,10.27
2023-02-01T07:58:57.182Z,8.60
2023-02-01T08:01:26.483Z,7.83
2023-02-01T08:03:56.935Z,5.27
2023-02-01T08:06:26.187Z,4.30
2023-02-01T08:08:56.272Z,4.57
2023-02-01T08:11:25.940Z,3.63
2023-02-01T08:13:54.597Z,3.67
2023-02-01T08:16:24.381Z,7.03
2023-02-01T08:18:53.317Z,4.80
2023-02-01T08:21:24.136Z,7.27
2023-02-01T08:23:52.601Z,4.40
2023-02-01T08:26:24.267Z,5.03
2023-02-01T08:28:54.399Z,4.57
2023-02-01T08:31:24.293Z,7.13
2023-02-01T08:33:54.239Z,6.77
2023-02-01T08:36:23.481Z,5.43
2023-02-01T08:38:52.069Z,3.53
2023-02-01T08:41:23.585Z,5.23
2023-02-01T08:43:52.116Z,6.67
2023-02-01T08:46:20.258Z,4.53
2023-02-01T08:48:49.277Z,7.13
2023-02-01T08:51:19.376Z,6.53
2023-02-01T08:53:48.263Z,5.30
2023-02-01T08:56:18.490Z,5.93
2023-02-01T08:58:48.012Z,8.37
2023-02-01T09:01:18.319Z,6.27
2023-02-01T09:03:46.813Z,5.90
2023-02-01T09:06:17.250Z,4.43
2023-02-01T09:08:45.568Z,10.83
2023-02-01T09:11:15.638Z,8.00
2023-02-01T09:13:43.894Z,6.10
2023-02-01T09:16:13.523Z,6.60
2023-02-01T09:18:50.655Z,5.27
2023-02-01T09:21:30.321Z,5.07
2023-02-01T09:23:58.486Z,6.57
2023-02-01T09:26:32.075Z,7.17
2023-02-01T09:29:01.252Z,8.50
2023-02-01T09:31:31.139Z,9.90
2023-02-01T09:33:59.360Z,7.67
2023-02-01T09:36:30.002Z,7.93
2023-02-01T09:38:59.043Z,9.60
2023-02-01T09:41:40.157Z,16.57
2023-02-01T09:44:20.346Z,15.47
2023-02-01T09:46:50.042Z,14.43
2023-02-01T09:49:23.795Z,18.10
2023-02-01T09:51:54.733Z,16.20
2023-02-01T09:54:26.753Z,11.47
2023-02-01T09:56:58.419Z,17.83
2023-02-01T09:59:35.692Z,11.47
2023-02-01T10:02:13.190Z,14.97
2023-02-01T10:04:41.479Z,14.87
2023-02-01T10:07:18.991Z,11.87
2023-02-01T10:10:00.358Z,21.17
2023-02-01T10:13:07.370Z,14.87
2023-02-01T10:15:54.106Z,14.10
2023-02-01T10:18:38.799Z,14.87
2023-02-01T10:21:15.444Z,13.20
2023-02-01T10:24:00.980Z,11.60
2023-02-01T10:26:35.168Z,15.50
2023-02-01T10:29:06.734Z,10.50
2023-02-01T10:31:39.616Z,9.27
2023-02-01T10:34:22.663Z,12.73
2023-02-01T10:36:56.505Z,14.48
2023-02-01T10:39:25.532Z,12.57
2023-02-01T10:41:54.293Z,10.77
2023-02-01T10:44:27.990Z,4.38
2023-02-01T10:46:56.218Z,6.97
2023-02-01T10:49:36.090Z,7.85
2023-02-01T10:52:14.124Z,9.52
2023-02-01T10:54:43.161Z,4.82
2023-02-01T10:57:12.395Z,12.52
2023-02-01T10:59:40.453Z,13.00
2023-02-01T11:02:29.052Z,9.48
2023-02-01T11:05:11.197Z,6.38
2023-02-01T11:07:41.075Z,12.05
2023-02-01T11:10:38.613Z,7.20
2023-02-01T11:13:07.378Z,6.97
2023-02-01T11:15:35.420Z,6.55
2023-02-01T11:18:18.151Z,8.43
2023-02-01T11:20:50.371Z,5.20
2023-02-01T11:23:21.083Z,7.43
2023-02-01T11:25:54.331Z,6.15
2023-02-01T11:28:25.826Z,9.38
2023-02-01T11:30:57.174Z,7.40
2023-02-01T11:33:30.884Z,5.90
2023-02-01T11:36:00.655Z,6.07
2023-02-01T11:38:31.448Z,5.63
2023-02-01T11:41:15.410Z,5.63
2023-02-01T11:43:59.436Z,7.35
2023-02-01T11:46:33.943Z,9.35
2023-02-01T11:49:21.740Z,9.30
2023-02-01T11:52:06.076Z,5.10
2023-02-01T11:54:48.849Z,6.03
2023-02-01T11:57:32.410Z,3.15
2023-02-01T12:00:16.825Z,4.03
2023-02-01T12:03:26.913Z,4.57
2023-02-01T12:06:01.464Z,1.98
2023-02-01T12:08:49.490Z,4.25
2023-02-01T12:11:30.782Z,2.70
2023-02-01T12:14:10.968Z,1.10
2023-02-01T12:16:48.298Z,1.00
2023-02-01T12:19:31.919Z,1.48
2023-02-01T12:22:14.515Z,1.65
2023-02-01T12:25:11.469Z,0.90
2023-02-01T12:27:59.810Z,0.65
2023-02-01T12:30:54.321Z,0.65
2023-02-01T12:33:34.140Z,0.65
2023-02-01T12:36:14.930Z,0.60
2023-02-01T12:38:54.298Z,1.92
2023-02-01T12:41:37.366Z,0.52
2023-02-01T12:44:10.763Z,0.80
2023-02-01T12:46:45.821Z,0.70
2023-02-01T12:49:19.661Z,1.00
2023-02-01T12:51:52.134Z,1.00
2023-02-01T12:54:24.179Z,1.38
2023-02-01T12:56:58.430Z,0.95
2023-02-01T12:59:34.027Z,0.85
2023-02-01T13:02:11.059Z,0.77
2023-02-01T13:04:48.800Z,0.80
2023-02-01T13:07:21.342Z,0.70
2023-02-01T13:09:56.715Z,0.50
2023-02-01T13:12:33.191Z,0.70
2023-02-01T13:15:06.975Z,0.73
2023-02-01T13:17:36.205Z,0.73
2023-02-01T13:20:09.115Z,0.60
2023-02-01T13:22:42.331Z,0.70
2023-02-01T13:25:15.967Z,1.10
2023-02-01T13:27:45.824Z,0.70
2023-02-01T13:30:21.047Z,0.77
2023-02-01T13:33:52.684Z,0.57
2023-02-01T13:36:15.102Z,0.60
2023-02-01T13:39:08.317Z,0.93
2023-02-01T13:41:44.000Z,0.82
2023-02-01T13:44:21.670Z,0.70
2023-02-01T13:46:52.546Z,0.60
2023-02-01T13:49:25.119Z,0.70
2023-02-01T13:51:56.220Z,0.60
2023-02-01T13:54:31.169Z,0.68
2023-02-01T13:57:01.555Z,1.23
2023-02-01T13:59:55.893Z,0.60
2023-02-01T14:02:52.133Z,0.73
2023-02-01T14:05:57.775Z,0.75
2023-02-01T14:08:39.887Z,0.80
2023-02-01T14:11:08.209Z,0.60
2023-02-01T14:13:38.026Z,0.70
2023-02-01T14:16:18.828Z,2.15
2023-02-01T14:19:02.408Z,0.93
2023-02-01T14:21:34.316Z,1.15
2023-02-01T14:24:04.881Z,0.73
2023-02-01T14:26:47.671Z,0.63
2023-02-01T14:29:27.675Z,0.60
2023-02-01T14:32:07.192Z,0.50
2023-02-01T14:34:44.390Z,0.70
2023-02-01T14:37:25.890Z,0.80
2023-02-01T14:40:02.080Z,2.27
2023-02-01T14:42:40.730Z,1.27
2023-02-01T14:45:51.189Z,0.90
2023-02-01T14:48:48.145Z,1.43
2023-02-01T14:51:26.743Z,0.80
2023-02-01T14:53:55.251Z,1.13
2023-02-01T14:56:23.837Z,2.00
2023-02-01T14:58:58.180Z,0.73
2023-02-01T15:01:29.820Z,0.80
2023-02-01T15:04:05.595Z,0.63
2023-02-01T15:06:38.956Z,0.70
2023-02-01T15:09:12.981Z,2.00
2023-02-01T15:11:59.689Z,0.70
2023-02-01T15:14:29.314Z,0.70
2023-02-01T15:16:57.681Z,1.00
2023-02-01T15:19:29.544Z,0.90
2023-02-01T15:21:59.652Z,0.53
2023-02-01T15:24:29.494Z,1.33
2023-02-01T15:27:04.687Z,0.80
2023-02-01T15:29:35.094Z,0.60
2023-02-01T15:32:03.690Z,0.53
2023-02-01T15:37:31.551Z,0.70
2023-02-01T15:40:05.952Z,2.47
2023-02-01T15:42:34.128Z,0.83
2023-02-01T15:45:02.853Z,3.73
2023-02-01T15:47:33.960Z,1.53
2023-02-01T15:50:03.666Z,0.93
2023-02-01T15:52:38.137Z,0.70
2023-02-01T15:55:10.558Z,0.73
2023-02-01T15:57:43.271Z,0.70
2023-02-01T16:00:24.429Z,0.60
2023-02-01T16:02:58.245Z,0.77
2023-02-01T16:05:39.627Z,0.70
2023-02-01T16:08:16.158Z,1.33
2023-02-01T16:10:47.018Z,0.80
2023-02-01T16:13:16.316Z,0.90
2023-02-01T16:15:45.373Z,0.63
2023-02-01T16:18:17.673Z,0.90
2023-02-01T16:20:47.420Z,2.83
2023-02-01T16:23:16.948Z,0.70
2023-02-01T16:25:46.199Z,1.13
2023-02-01T16:28:14.840Z,0.80
2023-02-01T16:30:44.127Z,1.00
2023-02-01T16:33:24.446Z,1.03
2023-02-01T16:35:53.839Z,1.40
2023-02-01T16:38:24.645Z,1.20
2023-02-01T16:40:52.973Z,0.63
2023-02-01T16:43:25.019Z,1.13
2023-02-01T16:45:57.736Z,0.80
2023-02-01T16:48:29.417Z,0.80
2023-02-01T16:50:59.655Z,1.87
2023-02-01T16:53:31.858Z,0.80
2023-02-01T16:56:01.653Z,2.47
2023-02-01T16:58:30.152Z,1.50
2023-02-01T17:00:59.063Z,1.13
2023-02-01T17:03:27.763Z,1.27
2023-02-01T17:05:59.119Z,0.90
2023-02-01T17:08:35.127Z,0.93
2023-02-01T17:11:04.361Z,1.20
2023-02-01T17:13:33.980Z,1.10
2023-02-01T17:16:04.891Z,1.17
2023-02-01T17:18:36.609Z,1.03
2023-02-01T17:21:07.951Z,1.10
2023-02-01T17:23:40.397Z,3.40
2023-02-01T17:26:11.274Z,0.67
2023-02-01T17:28:40.030Z,5.13
2023-02-01T17:31:10.907Z,0.97
2023-02-01T17:33:39.914Z,1.13
2023-02-01T17:36:15.693Z,1.00
2023-02-01T17:38:53.886Z,1.00
2023-02-01T17:41:28.494Z,0.80
2023-02-01T17:43:57.547Z,4.70
2023-02-01T17:46:28.608Z,3.93
2023-02-01T17:48:58.397Z,2.67
2023-02-01T17:51:29.745Z,4.20
2023-02-01T17:54:01.415Z,9.67
2023-02-01T17:56:30.251Z,3.97
2023-02-01T17:58:59.298Z,5.00
2023-02-01T18:01:31.624Z,6.00
2023-02-01T18:04:00.156Z,8.07
2023-02-01T18:06:40.000Z,8.87
2023-02-01T18:09:11.047Z,7.07
2023-02-01T18:11:40.537Z,7.53
2023-02-01T18:14:13.063Z,4.37
2023-02-01T18:16:42.290Z,5.87
2023-02-01T18:19:11.488Z,4.17
2023-02-01T18:21:43.473Z,3.83
2023-02-01T18:24:16.240Z,4.43
2023-02-01T18:26:45.727Z,4.33
2023-02-01T18:29:16.880Z,4.23
2023-02-01T18:31:53.425Z,5.23
2023-02-01T18:34:27.774Z,4.80
2023-02-01T18:36:59.338Z,6.57
2023-02-01T18:39:31.326Z,5.60
2023-02-01T18:42:01.885Z,4.37
2023-02-01T18:44:34.197Z,6.10
2023-02-01T18:47:04.098Z,7.10
2023-02-01T18:49:36.742Z,4.07
2023-02-01T18:52:11.404Z,4.53
2023-02-01T18:54:57.578Z,4.83
2023-02-01T18:57:29.108Z,5.70
2023-02-01T18:59:59.512Z,5.43
2023-02-01T19:02:32.463Z,6.77
2023-02-01T19:05:02.427Z,6.40
2023-02-01T19:07:31.731Z,6.73
2023-02-01T19:10:02.857Z,7.93
2023-02-01T19:12:34.786Z,7.83
2023-02-01T19:15:05.141Z,8.97
2023-02-01T19:17:35.266Z,8.83
2023-02-01T19:20:05.820Z,11.70
2023-02-01T19:22:35.830Z,8.47
2023-02-01T19:25:08.840Z,10.07
2023-02-01T19:27:38.818Z,10.27
2023-02-01T19:30:12.856Z,7.93
2023-02-01T19:32:43.588Z,6.40
2023-02-01T19:35:20.035Z,9.87
2023-02-01T19:37:50.587Z,5.73
2023-02-01T19:40:23.354Z,6.70
2023-02-01T19:42:54.750Z,4.50
2023-02-01T19:45:25.234Z,6.47
2023-02-01T19:47:55.807Z,3.83
2023-02-01T19:50:26.636Z,3.63
2023-02-01T19:53:01.052Z,2.87
2023-02-01T19:55:32.755Z,4.93
2023-02-01T19:58:05.450Z,2.60
2023-02-01T20:00:35.478Z,3.47
2023-02-01T20:03:05.346Z,1.50
2023-02-01T20:05:34.580Z,1.30
2023-02-01T20:08:05.836Z,1.80
2023-02-01T20:10:36.876Z,2.23
2023-02-01T20:13:08.971Z,1.10
2023-02-01T20:15:40.094Z,1.70
2023-02-01T20:18:10.652Z,1.10
2023-02-01T20:20:39.829Z,1.53
2023-02-01T20:23:10.771Z,1.23
2023-02-01T20:25:42.782Z,1.13
2023-02-01T20:28:15.120Z,1.03
2023-02-01T20:30:46.896Z,1.20
2023-02-01T20:33:18.347Z,1.80
2023-02-01T20:35:48.355Z,1.10
2023-02-01T20:38:18.840Z,0.90
2023-02-01T20:40:50.824Z,1.10
2023-02-01T20:43:24.468Z,0.97
2023-02-01T20:45:54.387Z,1.07
2023-02-01T20:48:25.249Z,1.50
2023-02-01T20:50:55.871Z,2.10
2023-02-01T20:53:27.123Z,11.57
2023-02-01T20:56:00.492Z,7.93
2023-02-01T20:58:31.542Z,6.97
2023-02-01T21:01:01.359Z,4.20
2023-02-01T21:03:31.671Z,2.53
2023-02-01T21:06:02.225Z,1.67
2023-02-01T21:08:32.366Z,4.03
2023-02-01T21:11:05.315Z,4.20
2023-02-01T21:13:36.921Z,8.07
2023-02-01T21:16:10.884Z,9.90
2023-02-01T21:18:41.805Z,9.27
2023-02-01T21:21:12.373Z,8.67
2023-02-01T21:23:46.184Z,9.53
2023-02-01T21:26:18.954Z,5.73
2023-02-01T21:28:47.846Z,7.60
2023-02-01T21:31:17.268Z,9.20
2023-02-01T21:33:46.999Z,10.60
2023-02-01T21:36:19.275Z,9.03
2023-02-01T21:38:50.328Z,12.30
2023-02-01T21:41:38.409Z,8.77
2023-02-01T21:44:07.057Z,9.10
2023-02-01T21:46:35.555Z,7.00
2023-02-01T21:49:07.204Z,6.80
2023-02-01T21:51:38.130Z,6.30
2023-02-01T21:54:06.814Z,6.47
2023-02-01T21:56:36.513Z,3.70
2023-02-01T21:59:04.971Z,3.77
2023-02-01T22:01:33.378Z,3.37
2023-02-01T22:04:01.491Z,3.03
2023-02-01T22:06:31.912Z,2.00
2023-02-01T22:09:00.626Z,3.63
2023-02-01T22:11:29.559Z,2.60
2023-02-01T22:13:59.504Z,3.07
2023-02-01T22:16:27.639Z,3.20
2023-02-01T22:18:55.886Z,2.43
2023-02-01T22:21:25.016Z,2.70
2023-02-01T22:23:54.327Z,2.33
2023-02-01T22:26:23.815Z,2.30
2023-02-01T22:28:52.281Z,2.73
2023-02-01T22:31:22.285Z,2.30
2023-02-01T22:33:51.637Z,3.00
2023-02-01T22:36:20.272Z,2.33
2023-02-01T22:38:48.760Z,5.20
2023-02-01T22:41:16.808Z,3.33
2023-02-01T22:43:45.137Z,3.53
2023-02-01T22:46:15.337Z,3.37
2023-02-01T22:48:46.892Z,4.37
2023-02-01T22:51:17.470Z,2.57
2023-02-01T22:53:45.868Z,3.53
2023-02-01T22:56:16.999Z,6.40
2023-02-01T22:58:45.655Z,6.13
2023-02-01T23:01:16.383Z,4.10
2023-02-01T23:03:45.947Z,2.57
2023-02-01T23:06:18.587Z,4.70
2023-02-01T23:08:47.776Z,1.80
2023-02-01T23:11:15.810Z,2.03
2023-02-01T23:13:43.908Z,3.60
2023-02-01T23:16:13.635Z,1.70
2023-02-01T23:18:42.596Z,2.17
2023-02-01T23:21:15.341Z,1.90
2023-02-01T23:23:48.273Z,1.97
2023-02-01T23:26:16.535Z,2.30
2023-02-01T23:28:45.322Z,2.73
2023-02-01T23:31:15.134Z,2.43
2023-02-01T23:33:46.058Z,4.27
2023-02-01T23:36:16.901Z,7.83
2023-02-01T23:38:45.703Z,4.23
2023-02-01T23:41:15.391Z,3.00
2023-02-01T23:43:59.370Z,2.80
2023-02-01T23:46:31.789Z,4.77
2023-02-01T23:49:00.721Z,2.67
2023-02-01T23:51:30.947Z,2.27
2023-02-01T23:53:59.754Z,1.87
2023-02-01T23:56:31.325Z,2.40
2023-02-01T23:58:59.407Z,5.13
